sensor_id;sensor_type;location;lat;lon;timestamp;P1;P2;P0
28026;PMS5003;15344;52.342;-1.290;2023-02-11T00:02:04;19;16;
28026;PMS5003;15344;52.342;-1.290;2023-02-11T00:04:29;20;16;
28026;PMS5003;15344;52.342;-1.290;2023-02-11T00:06:54;21;16;
28026;PMS5003;15344;52.342;-1.290;2023-02-11T00:09:20;19;16;
28026;PMS5003;15344;52.342;-1.290;2023-02-11T00:11:45;22;18;
28026;PMS5003;15344;52.342;-1.290;2023-02-11T00:14:10;17;14;
28026;PMS5003;15344;52.342;-1.290;2023-02-11T00:16:36;18;12;
28026;PMS5003;15344;52.342;-1.290;2023-02-11T00:19:02;17;14;
28026;PMS5003;15344;52.342;-1.290;2023-02-11T00:21:27;15;14;
28026;PMS5003;15344;52.342;-1.290;2023-02-11T00:23:53;20;16;
28026;PMS5003;15344;52.342;-1.290;2023-02-11T00:26:19;18;17;
28026;PMS5003;15344;52.342;-1.290;2023-02-11T00:28:43;15;14;
28026;PMS5003;15344;52.342;-1.290;2023-02-11T00:31:09;19;14;
28026;PMS5003;15344;52.342;-1.290;2023-02-11T00:33:34;14;13;
28026;PMS5003;15344;52.342;-1.290;2023-02-11T00:36:02;11;10;
28026;PMS5003;15344;52.342;-1.290;2023-02-11T00:38:25;12;9;
28026;PMS5003;15344;52.342;-1.290;2023-02-11T00:40:50;14;13;
28026;PMS5003;15344;52.342;-1.290;2023-02-11T00:43:15;14;13;
28026;PMS5003;15344;52.342;-1.290;2023-02-11T00:45:41;12;9;
28026;PMS5003;15344;52.342;-1.290;2023-02-11T00:48:06;12;9;
28026;PMS5003;15344;52.342;-1.290;2023-02-11T00:50:31;15;11;
28026;PMS5003;15344;52.342;-1.290;2023-02-11T00:52:57;14;10;
28026;PMS5003;15344;52.342;-1.290;2023-02-11T00:55:22;10;10;
28026;PMS5003;15344;52.342;-1.290;2023-02-11T00:57:47;13;11;
28026;PMS5003;15344;52.342;-1.290;2023-02-11T01:00:13;15;13;
28026;PMS5003;15344;52.342;-1.290;2023-02-11T01:02:38;13;10;
28026;PMS5003;15344;52.342;-1.290;2023-02-11T01:05:03;12;12;
28026;PMS5003;15344;52.342;-1.290;2023-02-11T01:07:29;12;11;
28026;PMS5003;15344;52.342;-1.290;2023-02-11T01:09:54;19;12;
28026;PMS5003;15344;52.342;-1.290;2023-02-11T01:12:20;11;10;
28026;PMS5003;15344;52.342;-1.290;2023-02-11T01:14:46;12;10;
28026;PMS5003;15344;52.342;-1.290;2023-02-11T01:17:11;15;13;
28026;PMS5003;15344;52.342;-1.290;2023-02-11T01:19:36;12;12;
28026;PMS5003;15344;52.342;-1.290;2023-02-11T01:22:02;13;12;
28026;PMS5003;15344;52.342;-1.290;2023-02-11T01:24:27;15;13;
28026;PMS5003;15344;52.342;-1.290;2023-02-11T01:26:52;15;12;
28026;PMS5003;15344;52.342;-1.290;2023-02-11T01:29:18;14;11;
28026;PMS5003;15344;52.342;-1.290;2023-02-11T01:31:43;10;10;
28026;PMS5003;15344;52.342;-1.290;2023-02-11T01:34:08;13;8;
28026;PMS5003;15344;52.342;-1.290;2023-02-11T01:36:33;11;9;
28026;PMS5003;15344;52.342;-1.290;2023-02-11T01:38:59;10;10;
28026;PMS5003;15344;52.342;-1.290;2023-02-11T01:41:24;7;7;
28026;PMS5003;15344;52.342;-1.290;2023-02-11T01:43:49;11;11;
28026;PMS5003;15344;52.342;-1.290;2023-02-11T01:46:19;8;8;
28026;PMS5003;15344;52.342;-1.290;2023-02-11T01:48:41;12;8;
28026;PMS5003;15344;52.342;-1.290;2023-02-11T01:51:06;10;9;
28026;PMS5003;15344;52.342;-1.290;2023-02-11T01:53:31;17;13;
28026;PMS5003;15344;52.342;-1.290;2023-02-11T01:55:57;7;7;
28026;PMS5003;15344;52.342;-1.290;2023-02-11T01:58:22;9;8;
28026;PMS5003;15344;52.342;-1.290;2023-02-11T02:00:47;11;11;
28026;PMS5003;15344;52.342;-1.290;2023-02-11T02:03:14;13;11;
28026;PMS5003;15344;52.342;-1.290;2023-02-11T02:05:39;11;9;
28026;PMS5003;15344;52.342;-1.290;2023-02-11T02:08:05;10;10;
28026;PMS5003;15344;52.342;-1.290;2023-02-11T02:10:28;11;11;
28026;PMS5003;15344;52.342;-1.290;2023-02-11T02:12:53;12;9;
28026;PMS5003;15344;52.342;-1.290;2023-02-11T02:15:20;12;9;
28026;PMS5003;15344;52.342;-1.290;2023-02-11T02:17:45;8;8;
28026;PMS5003;15344;52.342;-1.290;2023-02-11T02:22:40;9;9;
28026;PMS5003;15344;52.342;-1.290;2023-02-11T02:25:03;11;9;
28026;PMS5003;15344;52.342;-1.290;2023-02-11T02:29:56;14;12;
28026;PMS5003;15344;52.342;-1.290;2023-02-11T02:32:19;14;12;
28026;PMS5003;15344;52.342;-1.290;2023-02-11T02:34:41;12;9;
28026;PMS5003;15344;52.342;-1.290;2023-02-11T02:37:07;8;8;
28026;PMS5003;15344;52.342;-1.290;2023-02-11T02:39:32;8;7;
28026;PMS5003;15344;52.342;-1.290;2023-02-11T02:41:57;12;10;
28026;PMS5003;15344;52.342;-1.290;2023-02-11T02:44:22;13;10;
28026;PMS5003;15344;52.342;-1.290;2023-02-11T02:46:48;16;13;
28026;PMS5003;15344;52.342;-1.290;2023-02-11T02:49:14;9;9;
28026;PMS5003;15344;52.342;-1.290;2023-02-11T02:54:09;15;11;
28026;PMS5003;15344;52.342;-1.290;2023-02-11T02:56:30;16;13;
28026;PMS5003;15344;52.342;-1.290;2023-02-11T02:58:59;14;10;
28026;PMS5003;15344;52.342;-1.290;2023-02-11T03:01:23;15;10;
28026;PMS5003;15344;52.342;-1.290;2023-02-11T03:03:47;11;11;
28026;PMS5003;15344;52.342;-1.290;2023-02-11T03:06:11;12;12;
28026;PMS5003;15344;52.342;-1.290;2023-02-11T03:08:36;11;11;
28026;PMS5003;15344;52.342;-1.290;2023-02-11T03:11:00;11;10;
28026;PMS5003;15344;52.342;-1.290;2023-02-11T03:13:26;10;10;
28026;PMS5003;15344;52.342;-1.290;2023-02-11T03:15:51;13;9;
28026;PMS5003;15344;52.342;-1.290;2023-02-11T03:18:17;17;11;
28026;PMS5003;15344;52.342;-1.290;2023-02-11T03:20:42;13;10;
28026;PMS5003;15344;52.342;-1.290;2023-02-11T03:23:07;10;9;
28026;PMS5003;15344;52.342;-1.290;2023-02-11T03:25:33;8;8;
28026;PMS5003;15344;52.342;-1.290;2023-02-11T03:27:59;15;14;
28026;PMS5003;15344;52.342;-1.290;2023-02-11T03:30:24;12;8;
28026;PMS5003;15344;52.342;-1.290;2023-02-11T03:32:49;13;11;
28026;PMS5003;15344;52.342;-1.290;2023-02-11T03:35:14;12;12;
28026;PMS5003;15344;52.342;-1.290;2023-02-11T03:37:39;17;13;
28026;PMS5003;15344;52.342;-1.290;2023-02-11T03:40:05;15;12;
28026;PMS5003;15344;52.342;-1.290;2023-02-11T03:42:31;10;9;
28026;PMS5003;15344;52.342;-1.290;2023-02-11T03:44:55;14;12;
28026;PMS5003;15344;52.342;-1.290;2023-02-11T03:47:20;16;12;
28026;PMS5003;15344;52.342;-1.290;2023-02-11T03:49:45;16;12;
28026;PMS5003;15344;52.342;-1.290;2023-02-11T03:52:10;21;18;
28026;PMS5003;15344;52.342;-1.290;2023-02-11T03:54:35;16;16;
28026;PMS5003;15344;52.342;-1.290;2023-02-11T03:57:00;14;13;
28026;PMS5003;15344;52.342;-1.290;2023-02-11T03:59:26;12;12;
28026;PMS5003;15344;52.342;-1.290;2023-02-11T04:01:51;18;14;
28026;PMS5003;15344;52.342;-1.290;2023-02-11T04:04:17;12;12;
28026;PMS5003;15344;52.342;-1.290;2023-02-11T04:06:42;18;16;
28026;PMS5003;15344;52.342;-1.290;2023-02-11T04:09:07;19;14;
28026;PMS5003;15344;52.342;-1.290;2023-02-11T04:11:33;21;15;
28026;PMS5003;15344;52.342;-1.290;2023-02-11T04:13:58;13;10;
28026;PMS5003;15344;52.342;-1.290;2023-02-11T04:16:24;16;13;
28026;PMS5003;15344;52.342;-1.290;2023-02-11T04:18:49;10;8;
28026;PMS5003;15344;52.342;-1.290;2023-02-11T04:21:15;10;10;
28026;PMS5003;15344;52.342;-1.290;2023-02-11T04:23:40;12;9;
28026;PMS5003;15344;52.342;-1.290;2023-02-11T04:26:05;14;13;
28026;PMS5003;15344;52.342;-1.290;2023-02-11T04:28:31;14;11;
28026;PMS5003;15344;52.342;-1.290;2023-02-11T04:30:57;14;12;
28026;PMS5003;15344;52.342;-1.290;2023-02-11T04:33:22;15;11;
28026;PMS5003;15344;52.342;-1.290;2023-02-11T04:35:48;14;13;
28026;PMS5003;15344;52.342;-1.290;2023-02-11T04:38:13;10;9;
28026;PMS5003;15344;52.342;-1.290;2023-02-11T04:40:38;10;8;
28026;PMS5003;15344;52.342;-1.290;2023-02-11T04:43:03;11;10;
28026;PMS5003;15344;52.342;-1.290;2023-02-11T04:45:29;14;11;
28026;PMS5003;15344;52.342;-1.290;2023-02-11T04:47:54;15;10;
28026;PMS5003;15344;52.342;-1.290;2023-02-11T04:50:20;9;9;
28026;PMS5003;15344;52.342;-1.290;2023-02-11T04:52:45;12;10;
28026;PMS5003;15344;52.342;-1.290;2023-02-11T04:55:11;10;9;
28026;PMS5003;15344;52.342;-1.290;2023-02-11T04:57:36;7;7;
28026;PMS5003;15344;52.342;-1.290;2023-02-11T05:00:01;10;7;
28026;PMS5003;15344;52.342;-1.290;2023-02-11T05:02:27;11;9;
28026;PMS5003;15344;52.342;-1.290;2023-02-11T05:04:52;7;7;
28026;PMS5003;15344;52.342;-1.290;2023-02-11T05:07:17;10;7;
28026;PMS5003;15344;52.342;-1.290;2023-02-11T05:09:42;9;7;
28026;PMS5003;15344;52.342;-1.290;2023-02-11T05:12:07;7;7;
28026;PMS5003;15344;52.342;-1.290;2023-02-11T05:14:33;7;6;
28026;PMS5003;15344;52.342;-1.290;2023-02-11T05:16:58;7;6;
28026;PMS5003;15344;52.342;-1.290;2023-02-11T05:19:24;9;7;
28026;PMS5003;15344;52.342;-1.290;2023-02-11T05:21:49;5;5;
28026;PMS5003;15344;52.342;-1.290;2023-02-11T05:24:15;7;5;
28026;PMS5003;15344;52.342;-1.290;2023-02-11T05:26:40;11;7;
28026;PMS5003;15344;52.342;-1.290;2023-02-11T05:29:06;8;8;
28026;PMS5003;15344;52.342;-1.290;2023-02-11T05:31:31;6;6;
28026;PMS5003;15344;52.342;-1.290;2023-02-11T05:33:57;7;6;
28026;PMS5003;15344;52.342;-1.290;2023-02-11T05:36:22;6;6;
28026;PMS5003;15344;52.342;-1.290;2023-02-11T05:38:47;6;6;
28026;PMS5003;15344;52.342;-1.290;2023-02-11T05:41:12;5;5;
28026;PMS5003;15344;52.342;-1.290;2023-02-11T05:43:38;6;6;
28026;PMS5003;15344;52.342;-1.290;2023-02-11T05:46:04;5;4;
28026;PMS5003;15344;52.342;-1.290;2023-02-11T05:48:29;9;6;
28026;PMS5003;15344;52.342;-1.290;2023-02-11T05:50:54;11;7;
28026;PMS5003;15344;52.342;-1.290;2023-02-11T05:53:20;6;6;
28026;PMS5003;15344;52.342;-1.290;2023-02-11T05:55:45;8;7;
28026;PMS5003;15344;52.342;-1.290;2023-02-11T05:58:10;6;6;
28026;PMS5003;15344;52.342;-1.290;2023-02-11T06:00:36;11;8;
28026;PMS5003;15344;52.342;-1.290;2023-02-11T06:03:01;11;7;
28026;PMS5003;15344;52.342;-1.290;2023-02-11T06:05:27;9;7;
28026;PMS5003;15344;52.342;-1.290;2023-02-11T06:07:52;7;7;
28026;PMS5003;15344;52.342;-1.290;2023-02-11T06:10:18;12;8;
28026;PMS5003;15344;52.342;-1.290;2023-02-11T06:12:43;9;8;
28026;PMS5003;15344;52.342;-1.290;2023-02-11T06:15:08;9;6;
28026;PMS5003;15344;52.342;-1.290;2023-02-11T06:17:34;8;4;
28026;PMS5003;15344;52.342;-1.290;2023-02-11T06:20:00;9;8;
28026;PMS5003;15344;52.342;-1.290;2023-02-11T06:22:25;8;6;
28026;PMS5003;15344;52.342;-1.290;2023-02-11T06:24:51;7;5;
28026;PMS5003;15344;52.342;-1.290;2023-02-11T06:27:16;8;5;
28026;PMS5003;15344;52.342;-1.290;2023-02-11T06:29:41;5;5;
28026;PMS5003;15344;52.342;-1.290;2023-02-11T06:32:07;9;5;
28026;PMS5003;15344;52.342;-1.290;2023-02-11T06:34:32;5;4;
28026;PMS5003;15344;52.342;-1.290;2023-02-11T06:36:57;5;5;
28026;PMS5003;15344;52.342;-1.290;2023-02-11T06:39:23;8;6;
28026;PMS5003;15344;52.342;-1.290;2023-02-11T06:41:48;5;4;
28026;PMS5003;15344;52.342;-1.290;2023-02-11T06:44:13;5;5;
28026;PMS5003;15344;52.342;-1.290;2023-02-11T06:46:39;7;4;
28026;PMS5003;15344;52.342;-1.290;2023-02-11T06:49:04;5;5;
28026;PMS5003;15344;52.342;-1.290;2023-02-11T06:51:30;5;5;
28026;PMS5003;15344;52.342;-1.290;2023-02-11T06:53:55;6;4;
28026;PMS5003;15344;52.342;-1.290;2023-02-11T06:56:21;7;7;
28026;PMS5003;15344;52.342;-1.290;2023-02-11T06:58:46;5;4;
28026;PMS5003;15344;52.342;-1.290;2023-02-11T07:01:13;5;5;
28026;PMS5003;15344;52.342;-1.290;2023-02-11T07:03:38;5;4;
28026;PMS5003;15344;52.342;-1.290;2023-02-11T07:06:01;6;6;
28026;PMS5003;15344;52.342;-1.290;2023-02-11T07:08:26;5;4;
28026;PMS5003;15344;52.342;-1.290;2023-02-11T07:10:52;5;3;
28026;PMS5003;15344;52.342;-1.290;2023-02-11T07:13:17;5;5;
28026;PMS5003;15344;52.342;-1.290;2023-02-11T07:15:43;8;5;
28026;PMS5003;15344;52.342;-1.290;2023-02-11T07:18:08;6;5;
28026;PMS5003;15344;52.342;-1.290;2023-02-11T07:20:33;6;4;
28026;PMS5003;15344;52.342;-1.290;2023-02-11T07:22:59;7;6;
28026;PMS5003;15344;52.342;-1.290;2023-02-11T07:25:24;5;5;
28026;PMS5003;15344;52.342;-1.290;2023-02-11T07:27:49;7;6;
28026;PMS5003;15344;52.342;-1.290;2023-02-11T07:30:15;6;5;
28026;PMS5003;15344;52.342;-1.290;2023-02-11T07:32:40;6;4;
28026;PMS5003;15344;52.342;-1.290;2023-02-11T07:35:06;7;6;
28026;PMS5003;15344;52.342;-1.290;2023-02-11T07:37:32;8;8;
28026;PMS5003;15344;52.342;-1.290;2023-02-11T07:39:57;14;9;
28026;PMS5003;15344;52.342;-1.290;2023-02-11T07:42:22;5;4;
28026;PMS5003;15344;52.342;-1.290;2023-02-11T07:44:47;6;3;
28026;PMS5003;15344;52.342;-1.290;2023-02-11T07:47:13;10;6;
28026;PMS5003;15344;52.342;-1.290;2023-02-11T07:49:38;5;5;
28026;PMS5003;15344;52.342;-1.290;2023-02-11T07:52:04;5;4;
28026;PMS5003;15344;52.342;-1.290;2023-02-11T07:54:29;8;5;
28026;PMS5003;15344;52.342;-1.290;2023-02-11T07:56:54;4;4;
28026;PMS5003;15344;52.342;-1.290;2023-02-11T07:59:20;4;4;
28026;PMS5003;15344;52.342;-1.290;2023-02-11T08:01:45;6;5;
28026;PMS5003;15344;52.342;-1.290;2023-02-11T08:04:10;8;5;
28026;PMS5003;15344;52.342;-1.290;2023-02-11T08:06:38;6;6;
28026;PMS5003;15344;52.342;-1.290;2023-02-11T08:09:03;8;6;
28026;PMS5003;15344;52.342;-1.290;2023-02-11T08:11:27;6;6;
28026;PMS5003;15344;52.342;-1.290;2023-02-11T08:13:52;3;2;
28026;PMS5003;15344;52.342;-1.290;2023-02-11T08:16:18;5;3;
28026;PMS5003;15344;52.342;-1.290;2023-02-11T08:18:42;4;4;
28026;PMS5003;15344;52.342;-1.290;2023-02-11T08:21:08;3;3;
28026;PMS5003;15344;52.342;-1.290;2023-02-11T08:23:34;4;2;
28026;PMS5003;15344;52.342;-1.290;2023-02-11T08:26:00;3;3;
28026;PMS5003;15344;52.342;-1.290;2023-02-11T08:28:24;7;6;
28026;PMS5003;15344;52.342;-1.290;2023-02-11T08:30:49;7;4;
28026;PMS5003;15344;52.342;-1.290;2023-02-11T08:33:15;4;3;
28026;PMS5003;15344;52.342;-1.290;2023-02-11T08:35:40;3;3;
28026;PMS5003;15344;52.342;-1.290;2023-02-11T08:38:06;4;4;
28026;PMS5003;15344;52.342;-1.290;2023-02-11T08:40:31;4;4;
28026;PMS5003;15344;52.342;-1.290;2023-02-11T08:42:56;6;6;
28026;PMS5003;15344;52.342;-1.290;2023-02-11T08:45:22;4;4;
28026;PMS5003;15344;52.342;-1.290;2023-02-11T08:47:47;4;4;
28026;PMS5003;15344;52.342;-1.290;2023-02-11T08:50:12;4;3;
28026;PMS5003;15344;52.342;-1.290;2023-02-11T08:52:38;4;4;
28026;PMS5003;15344;52.342;-1.290;2023-02-11T08:55:03;8;5;
28026;PMS5003;15344;52.342;-1.290;2023-02-11T08:57:28;5;5;
28026;PMS5003;15344;52.342;-1.290;2023-02-11T08:59:53;4;4;
28026;PMS5003;15344;52.342;-1.290;2023-02-11T09:02:19;9;6;
28026;PMS5003;15344;52.342;-1.290;2023-02-11T09:04:44;5;5;
28026;PMS5003;15344;52.342;-1.290;2023-02-11T09:07:09;4;3;
28026;PMS5003;15344;52.342;-1.290;2023-02-11T09:09:35;6;4;
28026;PMS5003;15344;52.342;-1.290;2023-02-11T09:12:00;8;5;
28026;PMS5003;15344;52.342;-1.290;2023-02-11T09:14:26;4;4;
28026;PMS5003;15344;52.342;-1.290;2023-02-11T09:16:51;3;3;
28026;PMS5003;15344;52.342;-1.290;2023-02-11T09:19:16;5;5;
28026;PMS5003;15344;52.342;-1.290;2023-02-11T09:21:41;4;4;
28026;PMS5003;15344;52.342;-1.290;2023-02-11T09:24:07;4;4;
28026;PMS5003;15344;52.342;-1.290;2023-02-11T09:26:33;4;3;
28026;PMS5003;15344;52.342;-1.290;2023-02-11T09:28:58;2;2;
28026;PMS5003;15344;52.342;-1.290;2023-02-11T09:31:23;4;4;
28026;PMS5003;15344;52.342;-1.290;2023-02-11T09:33:49;6;4;
28026;PMS5003;15344;52.342;-1.290;2023-02-11T09:36:14;5;5;
28026;PMS5003;15344;52.342;-1.290;2023-02-11T09:38:38;2;2;
28026;PMS5003;15344;52.342;-1.290;2023-02-11T09:41:04;3;2;
28026;PMS5003;15344;52.342;-1.290;2023-02-11T09:43:30;6;4;
28026;PMS5003;15344;52.342;-1.290;2023-02-11T09:45:54;7;5;
28026;PMS5003;15344;52.342;-1.290;2023-02-11T09:48:20;4;3;
28026;PMS5003;15344;52.342;-1.290;2023-02-11T09:50:46;7;5;
28026;PMS5003;15344;52.342;-1.290;2023-02-11T09:53:12;4;4;
28026;PMS5003;15344;52.342;-1.290;2023-02-11T09:55:38;2;2;
28026;PMS5003;15344;52.342;-1.290;2023-02-11T09:58:01;6;2;
28026;PMS5003;15344;52.342;-1.290;2023-02-11T10:00:27;4;2;
28026;PMS5003;15344;52.342;-1.290;2023-02-11T10:02:57;8;6;
28026;PMS5003;15344;52.342;-1.290;2023-02-11T10:05:20;4;2;
28026;PMS5003;15344;52.342;-1.290;2023-02-11T10:07:45;4;4;
28026;PMS5003;15344;52.342;-1.290;2023-02-11T10:10:10;10;7;
28026;PMS5003;15344;52.342;-1.290;2023-02-11T10:12:39;7;6;
28026;PMS5003;15344;52.342;-1.290;2023-02-11T10:17:26;7;3;
28026;PMS5003;15344;52.342;-1.290;2023-02-11T10:19:53;6;5;
28026;PMS5003;15344;52.342;-1.290;2023-02-11T10:22:16;8;4;
28026;PMS5003;15344;52.342;-1.290;2023-02-11T10:24:40;2;2;
28026;PMS5003;15344;52.342;-1.290;2023-02-11T10:27:07;2;2;
28026;PMS5003;15344;52.342;-1.290;2023-02-11T10:29:33;4;4;
28026;PMS5003;15344;52.342;-1.290;2023-02-11T10:31:56;2;2;
28026;PMS5003;15344;52.342;-1.290;2023-02-11T10:34:21;5;3;
28026;PMS5003;15344;52.342;-1.290;2023-02-11T10:36:46;2;2;
28026;PMS5003;15344;52.342;-1.290;2023-02-11T10:39:12;5;5;
28026;PMS5003;15344;52.342;-1.290;2023-02-11T10:41:37;5;3;
28026;PMS5003;15344;52.342;-1.290;2023-02-11T10:44:02;3;3;
28026;PMS5003;15344;52.342;-1.290;2023-02-11T10:46:30;4;3;
28026;PMS5003;15344;52.342;-1.290;2023-02-11T10:48:53;3;3;
28026;PMS5003;15344;52.342;-1.290;2023-02-11T10:51:19;3;2;
28026;PMS5003;15344;52.342;-1.290;2023-02-11T10:53:44;4;2;
28026;PMS5003;15344;52.342;-1.290;2023-02-11T10:56:10;3;3;
28026;PMS5003;15344;52.342;-1.290;2023-02-11T10:58:35;4;2;
28026;PMS5003;15344;52.342;-1.290;2023-02-11T11:00:59;5;3;
28026;PMS5003;15344;52.342;-1.290;2023-02-11T11:03:25;6;3;
28026;PMS5003;15344;52.342;-1.290;2023-02-11T11:05:50;6;4;
28026;PMS5003;15344;52.342;-1.290;2023-02-11T11:08:15;2;2;
28026;PMS5003;15344;52.342;-1.290;2023-02-11T11:10:41;1;1;
28026;PMS5003;15344;52.342;-1.290;2023-02-11T11:13:07;2;2;
28026;PMS5003;15344;52.342;-1.290;2023-02-11T11:15:31;4;3;
28026;PMS5003;15344;52.342;-1.290;2023-02-11T11:20:23;4;3;
28026;PMS5003;15344;52.342;-1.290;2023-02-11T11:22:47;4;4;
28026;PMS5003;15344;52.342;-1.290;2023-02-11T11:27:38;9;5;
28026;PMS5003;15344;52.342;-1.290;2023-02-11T11:30:03;8;4;
28026;PMS5003;15344;52.342;-1.290;2023-02-11T11:32:29;4;4;
28026;PMS5003;15344;52.342;-1.290;2023-02-11T11:34:54;5;4;
28026;PMS5003;15344;52.342;-1.290;2023-02-11T11:37:19;4;4;
28026;PMS5003;15344;52.342;-1.290;2023-02-11T11:39:47;7;4;
28026;PMS5003;15344;52.342;-1.290;2023-02-11T11:44:35;6;6;
28026;PMS5003;15344;52.342;-1.290;2023-02-11T11:49:27;4;4;
28026;PMS5003;15344;52.342;-1.290;2023-02-11T11:51:53;6;6;
28026;PMS5003;15344;52.342;-1.290;2023-02-11T11:54:16;2;2;
28026;PMS5003;15344;52.342;-1.290;2023-02-11T11:56:44;4;3;
28026;PMS5003;15344;52.342;-1.290;2023-02-11T11:59:09;4;4;
28026;PMS5003;15344;52.342;-1.290;2023-02-11T12:01:33;4;4;
28026;PMS5003;15344;52.342;-1.290;2023-02-11T12:06:26;4;4;
28026;PMS5003;15344;52.342;-1.290;2023-02-11T12:08:51;5;4;
28026;PMS5003;15344;52.342;-1.290;2023-02-11T12:11:14;4;3;
28026;PMS5003;15344;52.342;-1.290;2023-02-11T12:13:40;4;4;
28026;PMS5003;15344;52.342;-1.290;2023-02-11T12:16:04;3;3;
28026;PMS5003;15344;52.342;-1.290;2023-02-11T12:18:32;4;4;
28026;PMS5003;15344;52.342;-1.290;2023-02-11T12:20:57;4;4;
28026;PMS5003;15344;52.342;-1.290;2023-02-11T12:23:26;6;4;
28026;PMS5003;15344;52.342;-1.290;2023-02-11T12:25:45;6;5;
28026;PMS5003;15344;52.342;-1.290;2023-02-11T12:28:15;4;4;
28026;PMS5003;15344;52.342;-1.290;2023-02-11T12:30:40;8;6;
28026;PMS5003;15344;52.342;-1.290;2023-02-11T12:33:01;2;2;
28026;PMS5003;15344;52.342;-1.290;2023-02-11T12:35:27;3;3;
28026;PMS5003;15344;52.342;-1.290;2023-02-11T12:40:16;4;4;
28026;PMS5003;15344;52.342;-1.290;2023-02-11T12:42:45;5;5;
28026;PMS5003;15344;52.342;-1.290;2023-02-11T12:45:10;4;4;
28026;PMS5003;15344;52.342;-1.290;2023-02-11T12:47:33;6;4;
28026;PMS5003;15344;52.342;-1.290;2023-02-11T12:50:01;3;3;
28026;PMS5003;15344;52.342;-1.290;2023-02-11T12:52:26;5;5;
28026;PMS5003;15344;52.342;-1.290;2023-02-11T12:54:48;4;4;
28026;PMS5003;15344;52.342;-1.290;2023-02-11T12:57:14;4;4;
28026;PMS5003;15344;52.342;-1.290;2023-02-11T12:59:40;4;4;
28026;PMS5003;15344;52.342;-1.290;2023-02-11T13:02:04;3;3;
28026;PMS5003;15344;52.342;-1.290;2023-02-11T13:04:31;5;5;
28026;PMS5003;15344;52.342;-1.290;2023-02-11T13:06:54;4;4;
28026;PMS5003;15344;52.342;-1.290;2023-02-11T13:09:21;2;2;
28026;PMS5003;15344;52.342;-1.290;2023-02-11T13:11:45;4;3;
28026;PMS5003;15344;52.342;-1.290;2023-02-11T13:14:11;2;2;
28026;PMS5003;15344;52.342;-1.290;2023-02-11T13:16:35;3;3;
28026;PMS5003;15344;52.342;-1.290;2023-02-11T13:19:00;4;4;
28026;PMS5003;15344;52.342;-1.290;2023-02-11T13:23:53;3;3;
28026;PMS5003;15344;52.342;-1.290;2023-02-11T13:26:17;9;6;
28026;PMS5003;15344;52.342;-1.290;2023-02-11T13:28:42;6;4;
28026;PMS5003;15344;52.342;-1.290;2023-02-11T13:31:06;8;6;
28026;PMS5003;15344;52.342;-1.290;2023-02-11T13:33:32;7;6;
28026;PMS5003;15344;52.342;-1.290;2023-02-11T13:38:22;6;6;
28026;PMS5003;15344;52.342;-1.290;2023-02-11T13:45:39;6;6;
28026;PMS5003;15344;52.342;-1.290;2023-02-11T13:48:04;8;8;
28026;PMS5003;15344;52.342;-1.290;2023-02-11T13:50:28;7;6;
28026;PMS5003;15344;52.342;-1.290;2023-02-11T13:52:57;6;6;
28026;PMS5003;15344;52.342;-1.290;2023-02-11T13:55:20;7;7;
28026;PMS5003;15344;52.342;-1.290;2023-02-11T13:57:44;7;6;
28026;PMS5003;15344;52.342;-1.290;2023-02-11T14:02:35;9;9;
28026;PMS5003;15344;52.342;-1.290;2023-02-11T14:05:01;9;7;
28026;PMS5003;15344;52.342;-1.290;2023-02-11T14:07:27;7;7;
28026;PMS5003;15344;52.342;-1.290;2023-02-11T14:09:51;10;8;
28026;PMS5003;15344;52.342;-1.290;2023-02-11T14:19:33;7;7;
28026;PMS5003;15344;52.342;-1.290;2023-02-11T14:22:00;3;3;
28026;PMS5003;15344;52.342;-1.290;2023-02-11T14:26:49;4;4;
28026;PMS5003;15344;52.342;-1.290;2023-02-11T14:29:15;6;6;
28026;PMS5003;15344;52.342;-1.290;2023-02-11T14:31:40;6;6;
28026;PMS5003;15344;52.342;-1.290;2023-02-11T14:34:07;6;4;
28026;PMS5003;15344;52.342;-1.290;2023-02-11T14:36:37;7;7;
28026;PMS5003;15344;52.342;-1.290;2023-02-11T14:38:57;5;5;
28026;PMS5003;15344;52.342;-1.290;2023-02-11T14:41:21;6;4;
28026;PMS5003;15344;52.342;-1.290;2023-02-11T14:43:46;4;3;
28026;PMS5003;15344;52.342;-1.290;2023-02-11T14:46:11;6;6;
28026;PMS5003;15344;52.342;-1.290;2023-02-11T14:48:36;4;4;
28026;PMS5003;15344;52.342;-1.290;2023-02-11T14:51:02;5;5;
28026;PMS5003;15344;52.342;-1.290;2023-02-11T14:53:27;6;5;
28026;PMS5003;15344;52.342;-1.290;2023-02-11T14:55:53;7;7;
28026;PMS5003;15344;52.342;-1.290;2023-02-11T14:58:18;6;6;
28026;PMS5003;15344;52.342;-1.290;2023-02-11T15:05:33;5;5;
28026;PMS5003;15344;52.342;-1.290;2023-02-11T15:08:00;7;7;
28026;PMS5003;15344;52.342;-1.290;2023-02-11T15:10:27;4;4;
28026;PMS5003;15344;52.342;-1.290;2023-02-11T15:12:49;6;5;
28026;PMS5003;15344;52.342;-1.290;2023-02-11T15:15:14;4;3;
28026;PMS5003;15344;52.342;-1.290;2023-02-11T15:17:40;4;4;
28026;PMS5003;15344;52.342;-1.290;2023-02-11T15:20:05;3;3;
28026;PMS5003;15344;52.342;-1.290;2023-02-11T15:22:31;5;5;
28026;PMS5003;15344;52.342;-1.290;2023-02-11T15:24:57;4;4;
28026;PMS5003;15344;52.342;-1.290;2023-02-11T15:27:20;4;4;
28026;PMS5003;15344;52.342;-1.290;2023-02-11T15:29:46;4;4;
28026;PMS5003;15344;52.342;-1.290;2023-02-11T15:32:11;2;2;
28026;PMS5003;15344;52.342;-1.290;2023-02-11T15:34:36;4;4;
28026;PMS5003;15344;52.342;-1.290;2023-02-11T15:37:01;3;3;
28026;PMS5003;15344;52.342;-1.290;2023-02-11T15:39:29;4;4;
28026;PMS5003;15344;52.342;-1.290;2023-02-11T15:41:51;3;3;
28026;PMS5003;15344;52.342;-1.290;2023-02-11T15:46:42;4;3;
28026;PMS5003;15344;52.342;-1.290;2023-02-11T15:49:12;4;4;
28026;PMS5003;15344;52.342;-1.290;2023-02-11T15:51:33;8;5;
28026;PMS5003;15344;52.342;-1.290;2023-02-11T15:53:58;4;4;
28026;PMS5003;15344;52.342;-1.290;2023-02-11T15:56:24;4;4;
28026;PMS5003;15344;52.342;-1.290;2023-02-11T15:58:48;3;3;
28026;PMS5003;15344;52.342;-1.290;2023-02-11T16:01:14;4;3;
28026;PMS5003;15344;52.342;-1.290;2023-02-11T16:03:39;5;4;
28026;PMS5003;15344;52.342;-1.290;2023-02-11T16:08:29;4;4;
28026;PMS5003;15344;52.342;-1.290;2023-02-11T16:10:56;5;4;
28026;PMS5003;15344;52.342;-1.290;2023-02-11T16:13:20;4;4;
28026;PMS5003;15344;52.342;-1.290;2023-02-11T16:15:46;4;2;
28026;PMS5003;15344;52.342;-1.290;2023-02-11T16:18:18;6;5;
28026;PMS5003;15344;52.342;-1.290;2023-02-11T16:20:35;3;3;
28026;PMS5003;15344;52.342;-1.290;2023-02-11T16:23:01;5;5;
28026;PMS5003;15344;52.342;-1.290;2023-02-11T16:25:26;2;2;
28026;PMS5003;15344;52.342;-1.290;2023-02-11T16:27:51;3;3;
28026;PMS5003;15344;52.342;-1.290;2023-02-11T16:30:21;5;5;
28026;PMS5003;15344;52.342;-1.290;2023-02-11T16:32:42;4;4;
28026;PMS5003;15344;52.342;-1.290;2023-02-11T16:35:09;6;6;
28026;PMS5003;15344;52.342;-1.290;2023-02-11T16:37:32;6;5;
28026;PMS5003;15344;52.342;-1.290;2023-02-11T16:39:57;4;4;
28026;PMS5003;15344;52.342;-1.290;2023-02-11T16:42:23;4;4;
28026;PMS5003;15344;52.342;-1.290;2023-02-11T16:44:48;7;4;
28026;PMS5003;15344;52.342;-1.290;2023-02-11T16:47:19;6;5;
28026;PMS5003;15344;52.342;-1.290;2023-02-11T16:49:39;5;5;
28026;PMS5003;15344;52.342;-1.290;2023-02-11T16:52:04;5;5;
28026;PMS5003;15344;52.342;-1.290;2023-02-11T16:54:29;6;4;
28026;PMS5003;15344;52.342;-1.290;2023-02-11T16:56:54;6;4;
28026;PMS5003;15344;52.342;-1.290;2023-02-11T16:59:20;3;3;
28026;PMS5003;15344;52.342;-1.290;2023-02-11T17:01:45;6;5;
28026;PMS5003;15344;52.342;-1.290;2023-02-11T17:04:14;3;3;
28026;PMS5003;15344;52.342;-1.290;2023-02-11T17:06:36;5;4;
28026;PMS5003;15344;52.342;-1.290;2023-02-11T17:09:01;5;3;